Time;durP1;ratioP1;P1;durP2;ratioP2;P2;SDS_P1;SDS_P2;PMS_P1;PMS_P2;Temp;Humidity;BMP_temperature;BMP_pressure;BME280_temperature;BME280_humidity;BME280_pressure;Samples;Min_cycle;Max_cycle;Signal;HPM_P1;HPM_P2
2021/12/06 00:00:32;;;;;;;3.27;2.60;;;8.20;99.90;;;;;;4974519;28;20199;-79
2021/12/06 00:03:01;;;;;;;5.25;2.75;;;8.20;99.90;;;;;;4982078;28;20638;-78
2021/12/06 00:05:27;;;;;;;4.90;2.35;;;8.20;99.90;;;;;;4985773;28;20179;-77
2021/12/06 00:07:54;;;;;;;3.40;2.45;;;8.10;99.90;;;;;;4982622;28;20186;-78
2021/12/06 00:10:20;;;;;;;2.88;2.53;;;8.10;99.90;;;;;;4979268;28;20163;-78
2021/12/06 00:12:46;;;;;;;3.80;2.45;;;8.10;99.90;;;;;;4985750;28;20175;-78
2021/12/06 00:15:13;;;;;;;4.25;2.17;;;8.00;99.90;;;;;;4973314;28;20542;-79
2021/12/06 00:17:39;;;;;;;4.32;2.22;;;8.00;99.90;;;;;;4979541;28;20211;-78
2021/12/06 00:20:08;;;;;;;3.05;2.28;;;8.00;99.90;;;;;;5008559;28;20202;-78
2021/12/06 00:22:34;;;;;;;3.08;2.05;;;8.00;99.90;;;;;;5012957;28;20166;-79
2021/12/06 00:24:59;;;;;;;3.73;1.70;;;8.00;99.90;;;;;;5012843;28;20171;-79
2021/12/06 00:27:26;;;;;;;4.57;2.00;;;8.00;99.90;;;;;;4995017;28;20669;-79
2021/12/06 00:29:53;;;;;;;5.53;2.40;;;7.90;99.90;;;;;;5012244;28;20553;-79
2021/12/06 00:32:18;;;;;;;3.85;1.70;;;7.90;99.90;;;;;;4994762;28;20166;-78
2021/12/06 00:34:45;;;;;;;1.60;1.30;;;7.90;99.90;;;;;;5011950;28;20162;-79
2021/12/06 00:37:18;;;;;;;1.58;1.20;;;7.90;99.90;;;;;;4978051;28;20598;-79
2021/12/06 00:39:51;;;;;;;2.78;1.38;;;7.90;99.90;;;;;;4977452;28;20275;-79
2021/12/06 00:42:19;;;;;;;4.10;1.42;;;7.80;99.90;;;;;;4993870;28;20630;-79
2021/12/06 00:44:45;;;;;;;3.20;1.20;;;7.90;99.90;;;;;;5011523;28;20253;-78
2021/12/06 00:47:11;;;;;;;2.70;1.30;;;7.80;99.90;;;;;;4993562;28;20265;-79
2021/12/06 00:49:37;;;;;;;1.73;1.38;;;7.80;99.90;;;;;;4993477;28;20601;-79
2021/12/06 00:52:04;;;;;;;1.95;1.65;;;7.80;99.90;;;;;;4961884;28;20630;-79
2021/12/06 00:54:34;;;;;;;2.78;1.52;;;7.80;99.90;;;;;;4981565;28;20206;-79
2021/12/06 00:57:03;;;;;;;2.72;1.95;;;7.80;99.90;;;;;;5012289;28;20249;-76
2021/12/06 00:59:28;;;;;;;1.90;1.40;;;7.80;99.90;;;;;;4993329;28;20202;-78
2021/12/06 01:01:56;;;;;;;1.80;1.50;;;7.80;99.90;;;;;;4994018;28;20169;-78
2021/12/06 01:04:22;;;;;;;2.15;1.60;;;7.70;99.90;;;;;;4961086;28;20198;-78
2021/12/06 01:06:48;;;;;;;1.80;1.50;;;7.70;99.90;;;;;;4994018;28;20635;-78
2021/12/06 01:09:14;;;;;;;2.10;1.60;;;7.60;99.90;;;;;;4977099;28;20289;-78
2021/12/06 01:11:39;;;;;;;1.87;1.37;;;7.60;99.90;;;;;;4961850;28;20182;-78
2021/12/06 01:14:05;;;;;;;2.23;1.60;;;7.50;99.90;;;;;;5010935;28;20174;-78
2021/12/06 01:16:31;;;;;;;1.80;1.70;;;7.50;99.90;;;;;;4994001;28;20185;-78
2021/12/06 01:18:57;;;;;;;2.25;1.65;;;7.50;99.90;;;;;;4993759;28;20566;-78
2021/12/06 01:21:31;;;;;;;2.07;1.40;;;7.50;99.90;;;;;;4997514;28;20170;-78
2021/12/06 01:23:59;;;;;;;2.40;1.60;;;7.50;99.90;;;;;;4981093;28;20939;-78
2021/12/06 01:27:03;;;;;;;3.00;1.42;;;7.50;99.90;;;;;;4997420;28;20167;-79
2021/12/06 01:39:57;;;;;;;2.08;1.88;;;7.50;99.90;;;;;;4996713;28;20202;-78
2021/12/06 01:42:24;;;;;;;2.67;2.25;;;7.50;99.90;;;;;;4997068;28;20261;-78
2021/12/06 01:44:54;;;;;;;2.42;1.90;;;7.50;99.90;;;;;;4997048;28;20572;-78
2021/12/06 01:47:27;;;;;;;1.90;1.60;;;7.50;99.90;;;;;;4964582;28;20658;-79
2021/12/06 01:49:56;;;;;;;2.85;2.13;;;7.50;99.90;;;;;;4996623;28;20202;-78
2021/12/06 01:52:31;;;;;;;3.00;2.38;;;7.50;99.90;;;;;;4996837;28;20236;-79
2021/12/06 01:54:58;;;;;;;3.13;1.98;;;7.50;99.90;;;;;;4997167;28;20508;-79
2021/12/06 01:57:26;;;;;;;3.58;2.60;;;7.50;99.90;;;;;;4996676;28;20621;-78
2021/12/06 01:59:53;;;;;;;3.50;1.60;;;7.50;99.90;;;;;;5013859;28;20210;-78
2021/12/06 02:02:21;;;;;;;2.28;1.70;;;7.50;99.90;;;;;;4996938;28;20522;-78
2021/12/06 02:04:47;;;;;;;1.70;1.40;;;7.50;99.90;;;;;;4996388;28;20253;-78
2021/12/06 02:07:21;;;;;;;2.47;1.70;;;7.50;99.90;;;;;;5014609;28;20598;-78
2021/12/06 02:09:52;;;;;;;2.45;1.58;;;7.50;99.90;;;;;;5001534;28;20202;-78
2021/12/06 02:12:19;;;;;;;2.83;2.20;;;7.40;99.90;;;;;;4996868;28;20205;-78
2021/12/06 02:17:28;;;;;;;2.55;1.60;;;7.30;99.90;;;;;;4996646;28;20224;-78
2021/12/06 02:20:01;;;;;;;3.72;1.95;;;7.30;99.90;;;;;;4995600;28;20221;-78
2021/12/06 02:22:30;;;;;;;2.78;2.13;;;7.30;99.90;;;;;;4996435;28;20784;-78
2021/12/06 02:24:57;;;;;;;1.90;1.70;;;7.30;99.90;;;;;;4996131;28;20166;-78
2021/12/06 02:27:26;;;;;;;3.08;2.50;;;7.20;99.90;;;;;;5013909;28;20166;-78
2021/12/06 02:29:53;;;;;;;4.72;3.00;;;7.20;99.90;;;;;;4995441;28;20205;-79
2021/12/06 02:32:20;;;;;;;5.63;3.45;;;7.20;99.90;;;;;;4995672;28;20174;-78
2021/12/06 02:34:51;;;;;;;4.55;2.92;;;7.20;99.90;;;;;;4996235;28;20691;-79
2021/12/06 02:37:30;;;;;;;7.78;3.88;;;7.20;99.90;;;;;;4979814;28;20197;-78
2021/12/06 02:39:58;;;;;;;4.82;3.42;;;7.10;99.90;;;;;;4979482;28;20202;-78
2021/12/06 02:42:25;;;;;;;6.88;4.40;;;7.10;99.90;;;;;;4996034;28;20515;-78
2021/12/06 02:44:52;;;;;;;5.82;4.05;;;7.10;99.90;;;;;;4996493;28;20158;-79
2021/12/06 02:47:20;;;;;;;5.55;3.47;;;7.10;99.90;;;;;;5002488;28;20205;-78
2021/12/06 02:49:49;;;;;;;4.57;3.15;;;7.20;99.90;;;;;;4995627;28;20201;-78
2021/12/06 02:52:16;;;;;;;3.97;3.58;;;7.10;99.90;;;;;;5013386;28;20177;-78
2021/12/06 02:54:43;;;;;;;6.05;3.25;;;7.20;99.90;;;;;;5013220;28;20168;-78
2021/12/06 02:59:37;;;;;;;4.50;2.97;;;7.20;99.90;;;;;;4994776;28;20636;-78
2021/12/06 03:02:06;;;;;;;4.47;3.67;;;7.20;99.90;;;;;;4995739;28;20270;-79
2021/12/06 03:04:33;;;;;;;3.95;3.60;;;7.20;99.90;;;;;;4979570;28;20170;-79
2021/12/06 03:06:59;;;;;;;3.22;2.92;;;7.20;99.90;;;;;;5013540;28;20182;-79
2021/12/06 03:09:29;;;;;;;4.10;3.10;;;7.20;99.90;;;;;;4994917;28;20198;-79
2021/12/06 03:11:58;;;;;;;3.95;3.03;;;7.20;99.90;;;;;;5009967;28;20182;-79
2021/12/06 03:14:36;;;;;;;3.67;2.70;;;7.20;99.90;;;;;;4987722;28;20185;-79
2021/12/06 03:17:08;;;;;;;3.53;2.28;;;7.30;99.90;;;;;;4995643;28;20241;-77
2021/12/06 03:19:35;;;;;;;4.07;3.17;;;7.30;99.90;;;;;;4994386;28;20209;-77
2021/12/06 03:22:03;;;;;;;3.97;2.67;;;7.30;99.90;;;;;;4979689;28;20245;-77
2021/12/06 03:24:30;;;;;;;3.88;2.80;;;7.30;99.90;;;;;;4964995;28;20703;-77
2021/12/06 03:26:56;;;;;;;5.07;3.50;;;7.40;99.90;;;;;;4978756;28;20294;-76
2021/12/06 03:29:22;;;;;;;5.35;3.63;;;7.40;99.90;;;;;;4978946;28;20202;-76
2021/12/06 03:31:49;;;;;;;4.47;3.00;;;7.40;99.90;;;;;;4963685;28;20711;-76
2021/12/06 03:34:18;;;;;;;3.75;2.78;;;7.40;99.90;;;;;;4995070;28;20175;-76
2021/12/06 03:36:47;;;;;;;4.25;3.75;;;7.50;99.90;;;;;;4994890;28;20173;-76
2021/12/06 03:39:20;;;;;;;4.35;3.72;;;7.50;99.90;;;;;;4994399;28;20209;-76
2021/12/06 03:41:48;;;;;;;4.53;3.10;;;7.50;99.90;;;;;;5011960;28;20166;-77
2021/12/06 03:44:14;;;;;;;3.67;3.00;;;7.50;99.90;;;;;;4977695;28;20166;-77
2021/12/06 03:46:41;;;;;;;4.20;2.70;;;7.60;99.90;;;;;;5010969;28;20209;-77
2021/12/06 03:49:12;;;;;;;4.03;3.45;;;7.60;99.90;;;;;;5011960;28;20194;-77
2021/12/06 03:51:39;;;;;;;4.95;3.15;;;7.60;99.90;;;;;;4994675;28;20541;-77
2021/12/06 03:54:06;;;;;;;4.85;2.83;;;7.60;99.90;;;;;;4977961;28;20222;-77
2021/12/06 03:56:36;;;;;;;3.33;3.00;;;7.60;99.90;;;;;;4994642;28;20634;-77
2021/12/06 03:59:02;;;;;;;5.75;3.20;;;7.60;99.90;;;;;;4994221;28;20199;-77
2021/12/06 04:01:31;;;;;;;3.17;2.85;;;7.60;99.90;;;;;;4982810;28;20665;-77
2021/12/06 04:03:58;;;;;;;3.63;2.67;;;7.60;99.90;;;;;;4978217;28;20265;-77
2021/12/06 04:06:24;;;;;;;3.25;2.92;;;7.60;99.90;;;;;;5012304;28;20166;-77
2021/12/06 04:08:50;;;;;;;4.50;3.00;;;7.60;99.90;;;;;;4993538;28;20194;-77
2021/12/06 04:11:16;;;;;;;4.10;3.20;;;7.60;99.90;;;;;;5007084;28;20678;-77
2021/12/06 04:13:45;;;;;;;3.45;3.13;;;7.60;99.90;;;;;;4965632;28;21157;-77
2021/12/06 04:16:11;;;;;;;4.60;3.13;;;7.50;99.90;;;;;;4978318;28;20182;-77
2021/12/06 04:18:38;;;;;;;3.55;2.65;;;7.50;99.90;;;;;;4993258;28;20244;-77
2021/12/06 04:21:05;;;;;;;3.58;2.72;;;7.50;99.90;;;;;;4994408;28;20205;-77
2021/12/06 04:23:34;;;;;;;2.87;2.57;;;7.40;99.90;;;;;;4993900;28;20169;-77
2021/12/06 04:26:00;;;;;;;3.13;2.92;;;7.40;99.90;;;;;;4994302;28;20167;-77
2021/12/06 04:28:29;;;;;;;3.65;2.92;;;7.30;99.90;;;;;;4993847;28;20186;-77
2021/12/06 04:30:56;;;;;;;3.63;3.00;;;7.30;99.90;;;;;;4977902;28;20581;-77
2021/12/06 04:33:23;;;;;;;3.60;3.30;;;7.20;99.90;;;;;;4993958;28;20186;-77
2021/12/06 04:35:49;;;;;;;3.50;3.20;;;7.20;99.90;;;;;;4994105;28;20170;-77
2021/12/06 04:38:15;;;;;;;4.10;3.70;;;7.20;99.90;;;;;;4982351;28;20564;-77
2021/12/06 04:40:41;;;;;;;5.18;3.58;;;7.20;99.90;;;;;;5011446;28;20616;-77
2021/12/06 04:43:09;;;;;;;3.05;2.75;;;7.10;99.90;;;;;;5011462;28;20216;-77
2021/12/06 04:45:36;;;;;;;3.65;2.97;;;7.10;99.90;;;;;;4994082;28;20175;-77
2021/12/06 04:48:03;;;;;;;3.10;2.70;;;7.10;99.90;;;;;;4993391;28;20166;-77
2021/12/06 04:50:32;;;;;;;4.32;3.92;;;7.10;99.90;;;;;;5011534;28;20249;-77
2021/12/06 04:53:02;;;;;;;5.10;4.40;;;7.00;99.90;;;;;;4993189;28;20193;-77
2021/12/06 04:55:47;;;;;;;4.13;3.35;;;7.00;99.90;;;;;;4979202;28;20801;-77
2021/12/06 04:58:19;;;;;;;4.45;3.85;;;7.00;99.90;;;;;;4952969;28;20203;-77
2021/12/06 05:00:59;;;;;;;3.15;2.88;;;7.00;99.90;;;;;;5001526;28;20202;-77
2021/12/06 05:03:25;;;;;;;4.85;2.85;;;7.00;99.90;;;;;;4968841;28;20567;-77
2021/12/06 05:06:00;;;;;;;4.38;3.88;;;7.00;99.90;;;;;;4978516;28;20175;-78
2021/12/06 05:08:31;;;;;;;4.10;3.05;;;7.00;99.90;;;;;;4989075;28;20563;-78
2021/12/06 05:10:59;;;;;;;4.18;2.88;;;7.10;99.90;;;;;;4988553;28;20167;-77
2021/12/06 05:13:27;;;;;;;4.15;3.17;;;7.10;99.90;;;;;;4989608;28;20178;-78
2021/12/06 05:15:53;;;;;;;3.25;2.95;;;7.10;99.90;;;;;;4990917;28;20568;-78
2021/12/06 05:18:21;;;;;;;4.03;3.53;;;7.10;99.90;;;;;;4980217;28;20633;-77
2021/12/06 05:20:47;;;;;;;3.92;2.63;;;7.10;99.90;;;;;;5015559;28;20216;-77
2021/12/06 05:23:14;;;;;;;4.20;3.80;;;7.20;99.90;;;;;;5013145;28;20626;-78
2021/12/06 05:25:40;;;;;;;4.22;3.35;;;7.10;99.90;;;;;;4965027;28;20569;-77
2021/12/06 05:28:06;;;;;;;3.65;3.35;;;7.10;99.90;;;;;;5014427;28;20229;-76
2021/12/06 05:30:39;;;;;;;3.72;3.33;;;7.10;99.90;;;;;;4997240;28;20570;-77
2021/12/06 05:33:07;;;;;;;4.00;3.60;;;7.10;99.90;;;;;;4997067;28;20731;-77
2021/12/06 05:35:33;;;;;;;3.85;3.42;;;7.10;99.90;;;;;;4997142;28;20575;-75
2021/12/06 05:38:01;;;;;;;5.60;3.85;;;7.10;99.90;;;;;;4996846;28;20181;-76
2021/12/06 05:40:30;;;;;;;5.95;3.60;;;7.10;99.90;;;;;;4996992;28;20202;-76
2021/12/06 05:42:57;;;;;;;3.70;3.35;;;7.10;99.90;;;;;;4996902;28;20262;-76
2021/12/06 05:45:27;;;;;;;5.95;3.65;;;7.10;99.90;;;;;;4997087;28;20173;-77
2021/12/06 05:47:54;;;;;;;4.22;3.53;;;7.10;99.90;;;;;;4996706;28;20182;-76
2021/12/06 05:50:24;;;;;;;6.68;3.65;;;7.00;99.90;;;;;;4997438;28;20624;-76
2021/12/06 05:52:53;;;;;;;6.18;5.30;;;7.00;99.90;;;;;;4999595;28;20174;-77
2021/12/06 05:55:19;;;;;;;6.20;4.50;;;7.00;99.90;;;;;;5015028;28;20220;-77
2021/12/06 05:57:46;;;;;;;4.97;4.50;;;7.00;99.90;;;;;;4997488;28;20181;-77
2021/12/06 06:00:14;;;;;;;5.65;4.70;;;7.00;99.90;;;;;;5014012;28;20563;-77
2021/12/06 06:02:41;;;;;;;6.30;5.15;;;7.00;99.90;;;;;;4980417;28;20170;-76
2021/12/06 06:05:08;;;;;;;5.18;4.68;;;7.00;99.90;;;;;;5013402;28;20171;-77
2021/12/06 06:07:33;;;;;;;5.18;3.72;;;7.00;99.90;;;;;;4996128;28;20194;-77
2021/12/06 06:09:59;;;;;;;4.43;4.00;;;7.00;99.90;;;;;;5013652;28;20744;-76
2021/12/06 06:12:25;;;;;;;8.50;4.33;;;7.00;99.90;;;;;;5012731;28;20597;-76
2021/12/06 06:14:51;;;;;;;7.30;4.40;;;6.90;99.90;;;;;;5013813;28;20171;-76
2021/12/06 06:17:19;;;;;;;7.10;5.07;;;6.90;99.90;;;;;;4980068;28;20608;-76
2021/12/06 06:19:56;;;;;;;6.82;4.43;;;6.90;99.90;;;;;;4979421;28;20668;-76
2021/12/06 06:22:22;;;;;;;4.35;3.80;;;6.80;99.90;;;;;;5013923;28;20170;-76
2021/12/06 06:24:48;;;;;;;4.33;3.93;;;6.70;99.90;;;;;;5013665;28;20174;-76
2021/12/06 06:27:14;;;;;;;5.80;4.00;;;6.70;99.90;;;;;;4980130;28;20954;-77
2021/12/06 06:29:39;;;;;;;4.63;4.20;;;6.60;99.90;;;;;;5018618;28;20202;-76
2021/12/06 06:32:07;;;;;;;7.23;5.17;;;6.60;99.90;;;;;;5013996;28;20174;-77
2021/12/06 06:34:33;;;;;;;5.97;4.60;;;6.60;99.90;;;;;;4995890;28;20532;-77
2021/12/06 06:37:00;;;;;;;5.53;3.72;;;6.50;99.90;;;;;;5013244;28;20174;-76
2021/12/06 06:39:26;;;;;;;6.50;4.50;;;6.50;99.90;;;;;;5013104;28;20214;-76
2021/12/06 06:41:53;;;;;;;6.72;5.68;;;6.50;99.90;;;;;;4995915;28;20178;-76
2021/12/06 06:44:20;;;;;;;5.03;4.47;;;6.50;99.90;;;;;;4995702;28;20531;-76
2021/12/06 06:46:47;;;;;;;7.40;4.78;;;6.50;99.90;;;;;;4995815;28;20709;-76
2021/12/06 06:49:13;;;;;;;5.07;4.40;;;6.50;99.90;;;;;;4995019;28;20272;-76
2021/12/06 06:51:40;;;;;;;4.82;4.25;;;6.50;99.90;;;;;;4996060;28;20244;-77
2021/12/06 06:54:06;;;;;;;6.60;4.75;;;6.40;99.90;;;;;;4995387;28;20228;-78
2021/12/06 06:56:33;;;;;;;5.05;4.55;;;6.30;99.90;;;;;;5013566;28;20583;-78
2021/12/06 06:58:59;;;;;;;7.18;4.85;;;6.20;99.90;;;;;;4978529;28;20555;-76
2021/12/06 07:01:25;;;;;;;6.45;4.03;;;6.20;99.90;;;;;;5013294;28;20595;-76
2021/12/06 07:03:54;;;;;;;5.30;4.80;;;6.20;99.90;;;;;;4995200;28;20209;-75
2021/12/06 07:06:28;;;;;;;8.55;5.15;;;6.10;99.90;;;;;;5018462;28;20570;-76
2021/12/06 07:08:56;;;;;;;5.95;5.38;;;6.00;99.90;;;;;;5011127;28;20202;-74
2021/12/06 07:11:23;;;;;;;8.43;6.20;;;5.90;99.90;;;;;;4993292;28;20241;-74
2021/12/06 07:13:49;;;;;;;7.63;5.13;;;5.80;99.90;;;;;;4975411;28;20174;-75
2021/12/06 07:16:16;;;;;;;7.75;7.05;;;5.80;99.90;;;;;;4991029;28;20709;-75
2021/12/06 07:18:43;;;;;;;7.80;7.10;;;5.60;99.90;;;;;;4992133;28;20214;-74
2021/12/06 07:21:09;;;;;;;8.00;6.57;;;5.60;99.90;;;;;;4959693;28;20752;-76
2021/12/06 07:23:38;;;;;;;7.60;6.80;;;5.50;99.90;;;;;;4992489;28;20729;-75
2021/12/06 07:26:06;;;;;;;8.05;7.10;;;5.50;99.90;;;;;;4992819;28;20179;-75
2021/12/06 07:28:32;;;;;;;6.13;5.53;;;5.50;99.90;;;;;;4992539;28;20186;-74
2021/12/06 07:30:58;;;;;;;8.10;6.57;;;5.50;99.90;;;;;;4974958;28;20175;-74
2021/12/06 07:33:26;;;;;;;7.53;6.80;;;5.50;99.90;;;;;;4991814;28;20574;-74
2021/12/06 07:35:52;;;;;;;7.45;6.75;;;5.40;99.90;;;;;;4975608;28;20171;-74
2021/12/06 07:38:18;;;;;;;7.40;6.70;;;5.30;99.90;;;;;;4990510;28;20605;-75
2021/12/06 07:40:44;;;;;;;8.17;7.37;;;5.30;99.90;;;;;;4991329;28;20213;-75
2021/12/06 07:43:10;;;;;;;10.40;8.70;;;5.30;99.90;;;;;;5003313;28;20596;-75
2021/12/06 07:45:36;;;;;;;12.53;9.30;;;5.30;99.90;;;;;;4974252;28;20167;-75
2021/12/06 07:48:02;;;;;;;11.53;9.70;;;5.30;99.90;;;;;;4974518;28;21004;-75
2021/12/06 07:50:28;;;;;;;10.85;9.75;;;5.20;99.90;;;;;;4974910;28;20911;-75
2021/12/06 07:52:54;;;;;;;13.67;10.63;;;5.10;99.90;;;;;;4991072;28;20214;-75
2021/12/06 07:55:22;;;;;;;11.43;9.60;;;5.10;99.90;;;;;;4991647;28;20678;-75
2021/12/06 07:57:48;;;;;;;11.38;10.00;;;5.00;99.90;;;;;;4992107;28;20186;-75
2021/12/06 08:00:19;;;;;;;9.35;8.35;;;5.00;99.90;;;;;;4991868;28;20199;-74
2021/12/06 08:02:45;;;;;;;14.38;11.57;;;5.00;99.90;;;;;;4958572;28;20175;-75
2021/12/06 08:05:30;;;;;;;22.33;15.50;;;5.00;99.90;;;;;;4959015;28;20678;-74
2021/12/06 08:08:22;;;;;;;23.65;14.95;;;5.10;99.90;;;;;;4991670;28;20199;-74
2021/12/06 08:10:51;;;;;;;29.83;15.38;;;5.10;99.90;;;;;;4974711;28;20314;-75
2021/12/06 08:13:20;;;;;;;26.60;16.10;;;5.10;99.90;;;;;;4958546;28;20193;-75
2021/12/06 08:15:49;;;;;;;24.02;15.15;;;5.10;99.90;;;;;;4974052;28;20182;-75
2021/12/06 08:18:14;;;;;;;24.60;14.32;;;5.10;99.90;;;;;;4990855;28;20675;-75
2021/12/06 08:20:41;;;;;;;29.73;18.57;;;5.10;99.90;;;;;;4997045;28;20213;-75
2021/12/06 08:23:08;;;;;;;28.65;17.50;;;5.20;99.90;;;;;;4974097;28;20706;-75
2021/12/06 08:25:34;;;;;;;29.38;19.38;;;5.30;99.90;;;;;;4973526;28;20171;-75
2021/12/06 08:28:00;;;;;;;19.92;13.48;;;5.30;99.90;;;;;;4991193;28;20171;-75
2021/12/06 08:30:27;;;;;;;24.75;17.70;;;5.30;99.90;;;;;;4973682;28;20163;-74
2021/12/06 08:32:59;;;;;;;25.98;17.02;;;5.40;99.90;;;;;;4990265;28;20554;-75
2021/12/06 08:35:26;;;;;;;26.40;17.40;;;5.40;99.90;;;;;;4991650;28;20171;-75
2021/12/06 08:37:54;;;;;;;26.42;16.88;;;5.50;99.90;;;;;;4991451;28;20743;-75
2021/12/06 08:40:20;;;;;;;27.85;17.25;;;5.60;99.90;;;;;;4991629;28;20228;-75
2021/12/06 08:42:47;;;;;;;27.75;17.35;;;5.70;99.90;;;;;;4990341;28;20228;-76
2021/12/06 08:45:14;;;;;;;25.92;17.98;;;5.80;99.90;;;;;;4989930;28;20167;-76
2021/12/06 08:47:41;;;;;;;23.23;17.55;;;5.90;99.90;;;;;;5012414;28;20198;-75
2021/12/06 08:50:11;;;;;;;26.15;19.40;;;6.00;99.90;;;;;;5012621;28;20191;-75
2021/12/06 08:52:37;;;;;;;29.75;18.30;;;6.10;99.90;;;;;;4978844;28;20211;-75
2021/12/06 08:55:05;;;;;;;23.60;17.90;;;6.20;99.90;;;;;;4941540;28;20202;-75
2021/12/06 08:57:31;;;;;;;24.48;17.00;;;6.30;99.90;;;;;;4993976;28;20581;-75
2021/12/06 08:59:57;;;;;;;24.97;17.77;;;6.40;99.90;;;;;;4974167;28;20593;-76
2021/12/06 09:02:23;;;;;;;23.00;16.77;;;6.50;99.90;;;;;;4991674;28;20573;-75
2021/12/06 09:04:48;;;;;;;29.35;16.73;;;6.50;99.90;;;;;;4990730;28;20171;-75
2021/12/06 09:07:14;;;;;;;22.03;16.70;;;6.60;99.90;;;;;;4991068;28;20167;-75
2021/12/06 09:09:46;;;;;;;20.80;14.20;;;6.60;99.90;;;;;;4989734;28;20648;-75
2021/12/06 09:12:24;;;;;;;20.50;15.90;;;6.70;99.90;;;;;;4991409;28;20278;-74
2021/12/06 09:14:52;;;;;;;18.02;14.82;;;6.70;99.90;;;;;;4973130;28;20167;-74
2021/12/06 09:17:18;;;;;;;18.75;16.10;;;6.80;99.90;;;;;;4973932;28;20190;-74
2021/12/06 09:19:45;;;;;;;17.27;14.05;;;6.80;99.90;;;;;;4989947;28;20261;-76
2021/12/06 09:22:12;;;;;;;21.88;16.90;;;6.90;99.90;;;;;;4974241;28;20178;-76
2021/12/06 09:24:38;;;;;;;18.33;16.08;;;6.90;99.90;;;;;;4973766;28;20537;-76
2021/12/06 09:27:05;;;;;;;18.15;14.88;;;6.90;99.90;;;;;;4958228;28;20180;-77
2021/12/06 09:29:33;;;;;;;22.25;16.75;;;7.00;99.90;;;;;;4973209;28;20558;-77
2021/12/06 09:32:00;;;;;;;17.67;15.75;;;7.00;99.90;;;;;;4974655;28;20227;-77
2021/12/06 09:34:28;;;;;;;22.05;15.00;;;7.00;99.90;;;;;;4995397;28;20182;-77
2021/12/06 09:36:54;;;;;;;20.40;16.27;;;7.10;99.90;;;;;;4991704;28;20171;-77
2021/12/06 09:39:20;;;;;;;17.05;15.02;;;7.10;99.90;;;;;;4957562;28;20698;-78
2021/12/06 09:41:47;;;;;;;17.73;15.82;;;7.20;99.90;;;;;;4970288;28;20627;-76
2021/12/06 09:44:14;;;;;;;19.48;16.25;;;7.30;99.90;;;;;;4980052;28;20194;-77
2021/12/06 09:46:42;;;;;;;24.97;18.40;;;7.40;99.90;;;;;;4968318;28;20258;-75
2021/12/06 09:49:15;;;;;;;22.75;16.15;;;7.50;99.90;;;;;;4960126;28;20622;-75
2021/12/06 09:51:44;;;;;;;20.27;16.40;;;7.50;99.90;;;;;;4988999;28;20249;-75
2021/12/06 09:54:11;;;;;;;21.40;17.48;;;7.60;99.90;;;;;;4994277;28;20171;-74
2021/12/06 09:56:40;;;;;;;22.27;17.10;;;7.70;99.90;;;;;;4976732;28;20229;-75
2021/12/06 09:59:10;;;;;;;21.63;15.40;;;7.80;99.90;;;;;;5011628;28;20206;-75
2021/12/06 10:01:42;;;;;;;25.27;18.55;;;7.80;99.90;;;;;;5014038;28;20188;-75
2021/12/06 10:04:09;;;;;;;23.48;16.65;;;7.90;99.90;;;;;;4995927;28;20178;-75
2021/12/06 10:06:35;;;;;;;27.13;19.15;;;8.00;99.90;;;;;;4996455;28;20201;-76
2021/12/06 10:09:06;;;;;;;25.65;20.00;;;8.10;99.90;;;;;;5012891;28;20198;-76
2021/12/06 10:11:32;;;;;;;27.35;19.13;;;8.20;99.90;;;;;;5018251;28;20174;-76
2021/12/06 10:13:58;;;;;;;21.95;18.75;;;8.30;99.90;;;;;;5012778;28;20174;-75
2021/12/06 10:16:25;;;;;;;31.45;21.45;;;8.30;99.90;;;;;;4974381;28;20214;-75
2021/12/06 10:18:51;;;;;;;25.98;20.35;;;8.40;99.90;;;;;;4955769;28;20245;-76
2021/12/06 10:21:19;;;;;;;26.98;20.30;;;8.50;99.90;;;;;;4973315;28;20207;-76
2021/12/06 10:23:45;;;;;;;22.63;18.70;;;8.60;99.90;;;;;;4958768;28;20550;-76
2021/12/06 10:26:15;;;;;;;29.50;23.27;;;8.60;99.90;;;;;;4975583;28;20740;-75
2021/12/06 10:28:43;;;;;;;27.35;20.98;;;8.70;99.90;;;;;;4992372;28;20594;-76
2021/12/06 10:31:11;;;;;;;23.00;17.55;;;8.70;99.90;;;;;;4959810;28;20183;-75
2021/12/06 10:33:43;;;;;;;24.17;18.23;;;8.80;99.90;;;;;;4976382;28;20171;-75
2021/12/06 10:36:13;;;;;;;23.48;19.10;;;8.80;99.90;;;;;;4993252;28;20689;-74
2021/12/06 10:38:43;;;;;;;21.48;17.30;;;8.90;99.90;;;;;;4976760;28;20222;-73
2021/12/06 10:41:12;;;;;;;19.50;16.08;;;8.90;99.90;;;;;;4977203;28;20202;-74
2021/12/06 10:43:40;;;;;;;22.17;16.90;;;8.90;99.90;;;;;;4992809;28;20521;-75
2021/12/06 10:46:07;;;;;;;22.20;15.02;;;9.00;99.90;;;;;;4975313;28;20170;-75
2021/12/06 10:48:36;;;;;;;22.20;16.65;;;9.00;99.90;;;;;;4967422;28;20541;-76
2021/12/06 10:51:15;;;;;;;20.63;17.17;;;8.90;99.90;;;;;;5012363;28;20535;-75
2021/12/06 10:53:46;;;;;;;19.70;15.95;;;8.80;99.90;;;;;;4994938;28;20182;-75
2021/12/06 10:56:24;;;;;;;22.52;18.08;;;8.80;99.90;;;;;;4995393;28;20183;-75
2021/12/06 10:58:53;;;;;;;21.17;16.95;;;8.90;99.90;;;;;;4994770;28;20194;-75
2021/12/06 11:01:33;;;;;;;21.80;17.55;;;9.00;99.90;;;;;;4995196;28;20245;-75
2021/12/06 11:04:02;;;;;;;22.65;18.00;;;9.00;99.90;;;;;;4957965;28;20171;-75
2021/12/06 11:06:36;;;;;;;20.95;15.77;;;9.00;99.90;;;;;;4940646;28;20175;-75
2021/12/06 11:09:05;;;;;;;22.25;16.15;;;9.00;99.90;;;;;;4972181;28;20226;-75
2021/12/06 11:11:40;;;;;;;20.92;15.40;;;9.10;99.90;;;;;;4956516;28;20168;-77
2021/12/06 11:14:13;;;;;;;20.33;14.73;;;9.10;99.90;;;;;;4995667;28;20178;-76
2021/12/06 11:16:41;;;;;;;19.02;14.13;;;9.20;99.90;;;;;;4990439;28;20697;-77
2021/12/06 11:19:19;;;;;;;22.63;17.33;;;9.20;99.90;;;;;;4958465;28;20586;-76
2021/12/06 11:21:50;;;;;;;22.17;16.98;;;9.00;99.90;;;;;;5003388;28;20761;-76
2021/12/06 11:24:51;;;;;;;27.30;19.27;;;9.00;99.90;;;;;;4995386;28;20536;-77
2021/12/06 11:27:23;;;;;;;23.80;16.92;;;8.80;99.90;;;;;;4977848;28;20793;-76
2021/12/06 11:30:02;;;;;;;19.00;15.75;;;8.70;99.90;;;;;;5012058;28;20536;-75
2021/12/06 11:32:41;;;;;;;16.85;12.45;;;8.60;99.90;;;;;;5012399;28;20228;-75
2021/12/06 11:35:08;;;;;;;17.63;12.45;;;8.50;99.90;;;;;;5006252;28;20290;-75
2021/12/06 11:37:42;;;;;;;18.35;13.95;;;8.40;99.90;;;;;;4973182;28;20168;-76
2021/12/06 11:40:07;;;;;;;15.60;11.77;;;8.30;99.90;;;;;;4970483;28;20226;-74
2021/12/06 11:42:46;;;;;;;14.03;10.70;;;8.20;99.90;;;;;;4992225;28;20175;-75
2021/12/06 11:45:15;;;;;;;16.73;11.80;;;8.20;99.90;;;;;;4975026;28;20707;-73
2021/12/06 11:47:41;;;;;;;18.67;13.30;;;8.20;99.90;;;;;;4975760;28;20167;-74
2021/12/06 11:50:07;;;;;;;15.57;11.00;;;8.20;99.90;;;;;;4992738;28;20218;-75
2021/12/06 11:52:34;;;;;;;18.15;12.73;;;8.20;99.90;;;;;;4975414;28;20182;-76
2021/12/06 11:55:07;;;;;;;18.38;14.68;;;8.20;99.90;;;;;;4975190;28;20178;-75
2021/12/06 11:57:43;;;;;;;20.40;12.18;;;8.10;99.90;;;;;;4992959;28;20163;-76
2021/12/06 12:00:19;;;;;;;16.98;12.40;;;8.10;99.90;;;;;;4991848;28;20202;-77
2021/12/06 12:02:57;;;;;;;17.30;12.73;;;8.10;99.90;;;;;;4997645;28;20245;-76
2021/12/06 12:05:30;;;;;;;14.15;11.18;;;8.10;99.90;;;;;;4991839;28;20186;-76
2021/12/06 12:08:16;;;;;;;11.05;8.95;;;8.10;99.90;;;;;;4991604;28;20257;-76
2021/12/06 12:10:55;;;;;;;17.52;11.05;;;8.20;99.90;;;;;;4991807;28;20183;-75
2021/12/06 12:13:28;;;;;;;15.80;8.70;;;8.20;99.90;;;;;;4991817;28;20181;-76
2021/12/06 12:15:58;;;;;;;22.90;11.00;;;8.30;99.90;;;;;;4990698;28;20182;-77
2021/12/06 12:18:24;;;;;;;14.32;9.10;;;8.30;99.90;;;;;;4995657;28;20211;-77
2021/12/06 12:20:53;;;;;;;10.77;9.48;;;8.40;99.90;;;;;;4989417;28;20670;-78
2021/12/06 12:23:19;;;;;;;12.05;8.57;;;8.40;99.90;;;;;;5011740;28;20162;-76
2021/12/06 12:25:58;;;;;;;14.40;10.53;;;8.40;99.90;;;;;;5011509;28;20799;-77
2021/12/06 12:28:34;;;;;;;11.23;8.95;;;8.40;99.90;;;;;;5011455;28;21259;-77
2021/12/06 12:31:02;;;;;;;14.23;8.57;;;8.40;99.90;;;;;;4978023;28;20179;-76
2021/12/06 12:33:28;;;;;;;10.85;8.23;;;8.50;99.90;;;;;;4972104;28;20219;-77
2021/12/06 12:36:05;;;;;;;14.27;8.60;;;8.50;99.90;;;;;;4971699;28;20763;-77
2021/12/06 12:38:34;;;;;;;10.07;7.90;;;8.50;99.90;;;;;;4972167;28;20647;-76
2021/12/06 12:41:04;;;;;;;15.50;10.82;;;8.60;99.90;;;;;;4961703;28;20691;-76
2021/12/06 12:43:37;;;;;;;12.45;9.25;;;8.60;99.90;;;;;;4992634;28;20171;-76
2021/12/06 12:46:06;;;;;;;9.70;7.65;;;8.60;99.90;;;;;;4958375;28;20171;-76
2021/12/06 12:48:49;;;;;;;16.48;10.13;;;8.70;99.90;;;;;;4995711;28;20261;-75
2021/12/06 12:51:18;;;;;;;10.90;7.55;;;8.70;99.90;;;;;;5012756;28;20166;-76
2021/12/06 12:54:04;;;;;;;7.93;6.00;;;8.70;99.90;;;;;;5012235;28;20556;-76
2021/12/06 12:56:31;;;;;;;7.13;6.15;;;8.80;99.90;;;;;;4981295;28;20186;-76
2021/12/06 12:58:59;;;;;;;6.25;5.47;;;8.80;99.90;;;;;;5004412;28;20289;-75
2021/12/06 13:01:27;;;;;;;8.70;5.30;;;8.80;99.90;;;;;;5003209;28;20664;-76
2021/12/06 13:03:59;;;;;;;5.90;4.38;;;8.90;99.90;;;;;;4995747;28;20210;-76
2021/12/06 13:06:30;;;;;;;4.65;4.18;;;8.90;99.90;;;;;;4992503;28;20179;-75
2021/12/06 13:09:03;;;;;;;4.85;4.35;;;9.00;99.90;;;;;;4958448;28;20199;-75
2021/12/06 13:11:53;;;;;;;5.30;3.45;;;9.00;99.90;;;;;;4993532;28;20195;-75
2021/12/06 13:14:49;;;;;;;3.72;3.08;;;9.10;99.90;;;;;;4984800;28;20191;-75